createdAt,value
2023-02-14T00:10:58.986Z,99920
2023-02-14T00:22:58.612Z,99920
2023-02-14T00:34:58.611Z,99910
2023-02-14T00:46:58.615Z,99900
2023-02-14T00:58:58.707Z,99890
2023-02-14T01:10:58.963Z,99900
2023-02-14T01:22:58.671Z,99900
2023-02-14T01:34:58.627Z,99890
2023-02-14T01:46:58.621Z,99900
2023-02-14T01:58:58.621Z,99890
2023-02-14T02:10:58.949Z,99880
2023-02-14T02:22:58.728Z,99880
2023-02-14T02:34:58.620Z,99870
2023-02-14T02:46:58.620Z,99850
2023-02-14T02:58:58.713Z,99850
2023-02-14T03:10:58.944Z,99860
2023-02-14T03:22:58.704Z,99850
2023-02-14T03:34:58.678Z,99840
2023-02-14T03:46:58.628Z,99850
2023-02-14T03:58:58.627Z,99850
2023-02-14T04:10:58.952Z,99860
2023-02-14T04:22:58.629Z,99840
2023-02-14T04:34:58.704Z,99840
2023-02-14T04:46:58.637Z,99840
2023-02-14T04:58:58.619Z,99830
2023-02-14T05:10:59.143Z,99830
2023-02-14T05:22:58.622Z,99820
2023-02-14T05:35:00.805Z,99810
2023-02-14T05:46:58.673Z,99830
2023-02-14T05:58:58.633Z,99830
2023-02-14T06:10:59.133Z,99830
2023-02-14T06:22:58.653Z,99830
2023-02-14T06:34:58.742Z,99820
2023-02-14T06:46:58.692Z,99840
2023-02-14T06:58:58.639Z,99830
2023-02-14T07:10:59.067Z,99830
2023-02-14T07:22:58.705Z,99830
2023-02-14T07:34:58.628Z,99820
2023-02-14T07:46:58.641Z,99820
2023-02-14T07:58:58.715Z,99840
2023-02-14T08:10:59.077Z,99850
2023-02-14T08:22:58.633Z,99840
2023-02-14T08:34:59.181Z,99860
2023-02-14T08:46:58.768Z,99870
2023-02-14T08:58:58.609Z,99870
2023-02-14T09:10:59.212Z,99840
2023-02-14T09:22:58.719Z,99860
2023-02-14T09:34:58.616Z,99880
2023-02-14T09:46:58.706Z,99900
2023-02-14T09:58:58.616Z,99890
2023-02-14T10:10:59.027Z,99890
2023-02-14T10:22:58.723Z,99910
2023-02-14T10:34:58.979Z,99900
2023-02-14T10:46:58.676Z,99890
2023-02-14T10:58:58.616Z,99880
2023-02-14T11:10:58.949Z,99870
2023-02-14T11:22:58.731Z,99870
2023-02-14T11:34:58.692Z,99850
2023-02-14T11:46:58.713Z,99840
2023-02-14T11:58:58.617Z,99830
2023-02-14T12:10:58.847Z,99810
2023-02-14T12:22:58.673Z,99790
2023-02-14T12:34:58.716Z,99780
2023-02-14T12:46:58.654Z,99760
2023-02-14T12:58:58.619Z,99750
2023-02-14T13:10:58.946Z,99750
2023-02-14T13:22:58.720Z,99720
2023-02-14T13:34:58.677Z,99720
2023-02-14T13:46:58.687Z,99750
2023-02-14T13:58:58.618Z,99730
2023-02-14T14:10:58.682Z,99710
2023-02-14T14:22:58.666Z,99700
2023-02-14T14:34:58.692Z,99680
2023-02-14T14:46:58.677Z,99670
2023-02-14T14:58:58.619Z,99650
2023-02-14T15:10:58.882Z,99640
2023-02-14T15:22:58.625Z,99620
2023-02-14T15:34:58.710Z,99630
2023-02-14T15:46:58.707Z,99620
2023-02-14T15:58:58.717Z,99600
2023-02-14T16:10:58.966Z,99610
2023-02-14T16:22:58.625Z,99590
2023-02-14T16:34:58.613Z,99600
2023-02-14T16:46:58.721Z,99600
2023-02-14T16:58:58.745Z,99600
2023-02-14T17:10:58.745Z,99600
2023-02-14T17:22:58.623Z,99610
2023-02-14T17:34:58.801Z,99610
2023-02-14T17:46:58.708Z,99620
2023-02-14T17:58:58.673Z,99610
2023-02-14T18:10:58.930Z,99600
2023-02-14T18:22:58.729Z,99620
2023-02-14T18:34:58.660Z,99610
2023-02-14T18:46:58.702Z,99590
2023-02-14T18:58:58.698Z,99590
2023-02-14T19:10:58.939Z,99590
2023-02-14T19:22:58.616Z,99570
2023-02-14T19:34:58.728Z,99570
2023-02-14T19:46:58.624Z,99560
2023-02-14T19:58:58.655Z,99550
2023-02-14T20:10:59.034Z,99530
2023-02-14T20:22:58.801Z,99520
2023-02-14T20:34:58.922Z,99500
2023-02-14T20:46:58.734Z,99500
2023-02-14T20:58:58.702Z,99490
2023-02-14T21:10:58.951Z,99480
2023-02-14T21:22:58.670Z,99470
2023-02-14T21:34:58.648Z,99470
2023-02-14T21:46:58.732Z,99470
2023-02-14T21:58:58.627Z,99450
2023-02-14T22:10:58.927Z,99440
2023-02-14T22:22:58.653Z,99460
2023-02-14T22:34:58.676Z,99460
2023-02-14T22:46:58.659Z,99450
2023-02-14T22:58:58.750Z,99430
2023-02-14T23:10:58.617Z,99430
2023-02-14T23:22:58.609Z,99410
2023-02-14T23:34:58.627Z,99420
2023-02-14T23:46:58.628Z,99410
2023-02-14T23:58:58.652Z,99420
